createdAt,value
2018-05-21T00:00:55.552Z,11.70
2018-05-21T00:03:23.050Z,11.70
2018-05-21T00:05:50.567Z,11.70
2018-05-21T00:08:18.067Z,11.70
2018-05-21T00:10:45.578Z,11.80
2018-05-21T00:13:13.850Z,11.80
2018-05-21T00:15:42.112Z,11.80
2018-05-21T00:18:09.643Z,11.70
2018-05-21T00:20:37.151Z,11.70
2018-05-21T00:23:04.660Z,11.80
2018-05-21T00:25:32.148Z,11.80
2018-05-21T00:28:00.424Z,11.80
2018-05-21T00:30:28.691Z,11.70
2018-05-21T00:32:56.205Z,11.70
2018-05-21T00:35:23.706Z,11.70
2018-05-21T00:37:51.218Z,11.80
2018-05-21T00:40:18.720Z,11.80
2018-05-21T00:42:47.002Z,11.70
2018-05-21T00:45:14.509Z,11.70
2018-05-21T00:47:42.014Z,11.70
2018-05-21T00:50:09.526Z,11.70
2018-05-21T00:52:37.040Z,11.70
2018-05-21T00:55:16.452Z,11.70
2018-05-21T00:57:43.955Z,11.70
2018-05-21T01:00:11.466Z,11.70
2018-05-21T01:02:38.995Z,11.70
2018-05-21T01:05:06.572Z,11.70
2018-05-21T01:07:34.021Z,11.70
2018-05-21T01:10:01.519Z,11.70
2018-05-21T01:12:29.017Z,11.60
2018-05-21T01:14:56.531Z,11.60
2018-05-21T01:17:24.043Z,11.40
2018-05-21T01:19:51.709Z,11.30
2018-05-21T01:22:19.217Z,11.20
2018-05-21T01:24:46.719Z,11.30
2018-05-21T01:27:14.239Z,11.30
2018-05-21T01:29:41.735Z,11.30
2018-05-21T01:32:09.262Z,11.30
2018-05-21T01:34:37.552Z,11.30
2018-05-21T01:37:05.841Z,11.20
2018-05-21T01:39:33.363Z,11.20
2018-05-21T01:42:00.865Z,11.20
2018-05-21T01:44:28.399Z,11.10
2018-05-21T01:46:56.664Z,10.90
2018-05-21T01:49:24.944Z,10.90
2018-05-21T01:51:53.214Z,10.80
2018-05-21T01:54:21.487Z,10.70
2018-05-21T01:56:49.795Z,10.80
2018-05-21T01:59:17.287Z,10.80
2018-05-21T02:01:44.808Z,10.70
2018-05-21T02:04:12.302Z,10.80
2018-05-21T02:06:39.814Z,10.90
2018-05-21T02:09:08.107Z,10.80
2018-05-21T02:11:35.607Z,10.80
2018-05-21T02:14:03.140Z,10.70
2018-05-21T02:16:30.643Z,10.70
2018-05-21T02:18:58.143Z,10.70
2018-05-21T02:21:25.724Z,10.70
2018-05-21T02:23:53.154Z,10.60
2018-05-21T02:26:20.686Z,10.60
2018-05-21T02:28:48.945Z,10.50
2018-05-21T02:31:16.456Z,10.40
2018-05-21T02:33:43.997Z,10.50
2018-05-21T02:36:11.506Z,10.40
2018-05-21T02:38:39.034Z,10.40
2018-05-21T02:41:06.535Z,10.40
2018-05-21T02:43:34.054Z,10.40
2018-05-21T02:46:01.558Z,10.40
2018-05-21T02:48:29.053Z,10.40
2018-05-21T02:50:56.557Z,10.30
2018-05-21T02:53:24.045Z,10.20
2018-05-21T02:55:52.339Z,10.30
2018-05-21T02:58:19.844Z,10.20
2018-05-21T03:00:47.337Z,10.20
2018-05-21T03:03:15.605Z,10.10
2018-05-21T03:05:43.878Z,10.10
2018-05-21T03:08:11.395Z,10.10
2018-05-21T03:10:38.899Z,10.10
2018-05-21T03:13:07.186Z,10.10
2018-05-21T03:15:35.459Z,10.10
2018-05-21T03:18:03.731Z,10.10
2018-05-21T03:20:32.052Z,10.10
2018-05-21T03:22:59.595Z,10.10
2018-05-21T03:25:27.129Z,10.10
2018-05-21T03:27:55.400Z,10.10
2018-05-21T03:30:23.679Z,10.10
2018-05-21T03:32:52.047Z,10.10
2018-05-21T03:35:19.621Z,10.10
2018-05-21T03:37:48.867Z,10.30
2018-05-21T03:40:16.474Z,10.30
2018-05-21T03:42:44.002Z,10.30
2018-05-21T03:45:11.589Z,10.30
2018-05-21T03:47:39.110Z,10.10
2018-05-21T03:50:06.690Z,10.10
2018-05-21T03:52:34.206Z,10.00
2018-05-21T03:55:02.425Z,9.90
2018-05-21T03:57:29.943Z,9.90
2018-05-21T04:00:09.298Z,9.90
2018-05-21T04:02:48.651Z,9.80
2018-05-21T04:05:16.250Z,9.80
2018-05-21T04:07:44.547Z,9.80
2018-05-21T04:10:12.050Z,9.80
2018-05-21T04:12:39.569Z,9.90
2018-05-21T04:15:07.087Z,9.90
2018-05-21T04:17:35.401Z,10.00
2018-05-21T04:20:02.926Z,10.00
2018-05-21T04:22:31.255Z,10.10
2018-05-21T04:24:58.803Z,10.10
2018-05-21T04:27:26.359Z,10.10
2018-05-21T04:29:53.932Z,10.10
2018-05-21T04:32:21.465Z,10.20
2018-05-21T04:34:48.989Z,10.10
2018-05-21T04:37:16.530Z,10.20
2018-05-21T04:39:44.049Z,10.10
2018-05-21T04:42:11.594Z,10.10
2018-05-21T04:44:39.113Z,10.00
2018-05-21T04:47:06.623Z,10.10
2018-05-21T04:49:34.130Z,10.20
2018-05-21T04:52:01.624Z,10.20
2018-05-21T04:54:29.146Z,10.30
2018-05-21T04:56:56.667Z,10.40
2018-05-21T04:59:24.172Z,10.50
2018-05-21T05:01:52.533Z,10.40
2018-05-21T05:04:20.047Z,10.40
2018-05-21T05:06:47.575Z,10.50
2018-05-21T05:09:15.053Z,10.60
2018-05-21T05:11:42.555Z,10.60
2018-05-21T05:14:10.070Z,10.70
2018-05-21T05:16:37.576Z,10.80
2018-05-21T05:19:05.084Z,10.80
2018-05-21T05:21:32.588Z,10.90
2018-05-21T05:24:00.087Z,10.90
2018-05-21T05:26:28.357Z,10.90
2018-05-21T05:28:55.865Z,10.90
2018-05-21T05:31:23.384Z,10.90
2018-05-21T05:33:51.742Z,11.00
2018-05-21T05:36:19.232Z,11.00
2018-05-21T05:38:46.763Z,11.10
2018-05-21T05:41:14.262Z,11.10
2018-05-21T05:43:41.780Z,11.20
2018-05-21T05:46:09.279Z,11.20
2018-05-21T05:48:36.793Z,11.20
2018-05-21T05:51:04.302Z,11.20
2018-05-21T05:53:31.869Z,11.30
2018-05-21T05:55:59.392Z,11.40
2018-05-21T05:58:27.643Z,11.70
2018-05-21T06:00:55.169Z,11.70
2018-05-21T06:03:22.665Z,11.80
2018-05-21T06:05:50.305Z,11.90
2018-05-21T06:08:17.821Z,11.90
2018-05-21T06:10:45.424Z,11.90
2018-05-21T06:13:12.969Z,12.10
2018-05-21T06:15:40.635Z,12.10
2018-05-21T06:18:08.229Z,12.20
2018-05-21T06:20:35.792Z,12.30
2018-05-21T06:23:03.328Z,12.40
2018-05-21T06:25:30.923Z,12.50
2018-05-21T06:27:59.245Z,12.70
2018-05-21T06:30:26.863Z,12.70
2018-05-21T06:32:55.196Z,12.90
2018-05-21T06:35:22.817Z,12.90
2018-05-21T06:37:50.549Z,12.90
2018-05-21T06:40:18.108Z,13.10
2018-05-21T06:42:45.826Z,13.10
2018-05-21T06:45:13.414Z,13.10
2018-05-21T06:47:40.991Z,13.20
2018-05-21T06:50:10.610Z,13.30
2018-05-21T06:52:40.655Z,13.50
2018-05-21T06:55:08.299Z,13.50
2018-05-21T06:57:36.669Z,13.60
2018-05-21T07:00:04.293Z,13.60
2018-05-21T07:02:31.859Z,13.70
2018-05-21T07:04:59.425Z,13.80
2018-05-21T07:07:39.081Z,14.00
2018-05-21T07:10:06.626Z,14.00
2018-05-21T07:12:38.375Z,14.10
2018-05-21T07:15:06.061Z,14.30
2018-05-21T07:17:37.098Z,14.60
2018-05-21T07:20:04.605Z,14.60
2018-05-21T07:22:32.285Z,14.70
2018-05-21T07:24:59.845Z,14.70
2018-05-21T07:27:27.447Z,14.80
2018-05-21T07:29:55.752Z,15.30
2018-05-21T07:32:23.248Z,15.30
2018-05-21T07:34:50.782Z,15.50
2018-05-21T07:37:18.317Z,16.30
2018-05-21T07:39:46.595Z,18.30
2018-05-21T07:42:14.085Z,18.20
2018-05-21T07:44:41.710Z,19.30
2018-05-21T07:47:09.214Z,20.00
2018-05-21T07:49:36.742Z,21.10
2018-05-21T07:52:04.343Z,21.30
2018-05-21T07:54:33.314Z,22.30
2018-05-21T07:57:00.858Z,23.70
2018-05-21T07:59:30.619Z,24.80
2018-05-21T08:01:58.210Z,25.30
2018-05-21T08:04:26.535Z,26.30
2018-05-21T08:06:54.199Z,26.30
2018-05-21T08:09:22.166Z,27.20
2018-05-21T08:11:50.381Z,27.80
2018-05-21T08:14:19.495Z,28.10
2018-05-21T08:16:47.079Z,28.10
2018-05-21T08:19:14.668Z,28.80
2018-05-21T08:21:42.263Z,29.50
2018-05-21T08:24:09.762Z,29.80
2018-05-21T08:26:37.287Z,30.20
2018-05-21T08:29:04.785Z,30.50
2018-05-21T08:31:32.541Z,30.70
2018-05-21T08:34:00.100Z,31.10
2018-05-21T08:36:29.448Z,31.20
2018-05-21T08:38:57.720Z,31.10
2018-05-21T08:41:25.220Z,31.00
2018-05-21T08:43:52.731Z,31.40
2018-05-21T08:46:24.174Z,31.80
2018-05-21T08:48:51.806Z,31.90
2018-05-21T08:51:19.303Z,31.80
2018-05-21T08:53:46.807Z,32.30
2018-05-21T08:56:14.481Z,32.30
2018-05-21T08:58:42.100Z,32.60
2018-05-21T09:01:09.600Z,32.70
2018-05-21T09:03:37.090Z,32.30
2018-05-21T09:06:04.591Z,32.60
2018-05-21T09:08:32.091Z,32.60
2018-05-21T09:10:59.598Z,32.40
2018-05-21T09:13:27.865Z,33.10
2018-05-21T09:15:56.181Z,32.90
2018-05-21T09:18:23.707Z,32.90
2018-05-21T09:20:51.965Z,32.40
2018-05-21T09:23:19.576Z,32.30
2018-05-21T09:25:47.064Z,32.70
2018-05-21T09:28:14.546Z,32.90
2018-05-21T09:30:42.828Z,32.30
2018-05-21T09:33:11.100Z,32.90
2018-05-21T09:35:39.379Z,33.10
2018-05-21T09:38:07.651Z,32.90
2018-05-21T09:40:35.906Z,33.10
2018-05-21T09:43:03.414Z,33.10
2018-05-21T09:45:30.987Z,32.80
2018-05-21T09:47:58.505Z,33.00
2018-05-21T09:50:28.281Z,32.40
2018-05-21T09:52:55.766Z,32.40
2018-05-21T09:55:23.264Z,32.20
2018-05-21T09:57:50.745Z,32.30
2018-05-21T10:00:18.264Z,32.10
2018-05-21T10:02:45.762Z,31.80
2018-05-21T10:05:13.359Z,31.10
2018-05-21T10:07:40.873Z,31.40
2018-05-21T10:10:08.357Z,31.60
2018-05-21T10:12:35.869Z,31.60
2018-05-21T10:15:03.375Z,32.00
2018-05-21T10:17:30.900Z,31.60
2018-05-21T10:19:59.066Z,31.30
2018-05-21T10:22:26.585Z,31.10
2018-05-21T10:24:54.121Z,31.30
2018-05-21T10:27:21.609Z,31.00
2018-05-21T10:29:49.899Z,31.60
2018-05-21T10:32:17.424Z,31.50
2018-05-21T10:34:44.941Z,31.90
2018-05-21T10:37:12.491Z,31.40
2018-05-21T10:39:40.000Z,31.10
2018-05-21T10:42:07.535Z,31.40
2018-05-21T10:44:35.183Z,31.50
2018-05-21T10:47:02.706Z,30.00
2018-05-21T10:49:30.251Z,30.80
2018-05-21T10:51:59.675Z,31.20
2018-05-21T10:54:27.944Z,30.60
2018-05-21T10:56:55.443Z,30.60
2018-05-21T10:59:22.977Z,30.50
2018-05-21T11:01:50.502Z,30.30
2018-05-21T11:04:18.783Z,30.50
2018-05-21T11:06:46.310Z,30.50
2018-05-21T11:09:13.805Z,30.60
2018-05-21T11:11:42.091Z,29.80
2018-05-21T11:14:10.827Z,29.80
2018-05-21T11:16:38.325Z,29.70
2018-05-21T11:19:06.800Z,29.10
2018-05-21T11:21:34.309Z,29.10
2018-05-21T11:24:02.671Z,28.80
2018-05-21T11:26:30.157Z,28.70
2018-05-21T11:28:57.669Z,28.50
2018-05-21T11:31:25.918Z,27.80
2018-05-21T11:33:54.201Z,27.70
2018-05-21T11:36:21.713Z,27.70
2018-05-21T11:38:49.200Z,27.40
2018-05-21T11:41:16.725Z,27.20
2018-05-21T11:43:44.229Z,27.10
2018-05-21T11:46:11.725Z,27.10
2018-05-21T11:48:39.230Z,26.90
2018-05-21T11:51:06.717Z,26.70
2018-05-21T11:53:34.980Z,26.50
2018-05-21T11:56:02.460Z,26.40
2018-05-21T11:58:30.742Z,26.30
2018-05-21T12:00:58.988Z,26.10
2018-05-21T12:03:26.486Z,26.10
2018-05-21T12:05:53.992Z,26.10
2018-05-21T12:08:21.476Z,26.30
2018-05-21T12:10:49.756Z,26.30
2018-05-21T12:13:18.017Z,26.30
2018-05-21T12:15:45.505Z,26.30
2018-05-21T12:18:13.027Z,26.60
2018-05-21T12:20:40.536Z,26.80
2018-05-21T12:23:08.045Z,27.00
2018-05-21T12:25:35.526Z,27.40
2018-05-21T12:28:03.790Z,28.40
2018-05-21T12:30:32.057Z,28.80
2018-05-21T12:32:59.582Z,28.80
2018-05-21T12:35:27.085Z,29.40
2018-05-21T12:37:55.450Z,29.80
2018-05-21T12:40:22.941Z,29.80
2018-05-21T12:42:50.484Z,30.20
2018-05-21T12:45:19.229Z,30.40
2018-05-21T12:47:46.745Z,30.30
2018-05-21T12:50:15.009Z,31.10
2018-05-21T12:52:43.281Z,31.00
2018-05-21T12:55:11.590Z,30.80
2018-05-21T12:57:39.095Z,30.80
2018-05-21T13:00:06.589Z,30.40
2018-05-21T13:02:34.845Z,28.70
2018-05-21T13:05:03.134Z,27.60
2018-05-21T13:07:31.450Z,26.30
2018-05-21T13:09:59.069Z,26.20
2018-05-21T13:12:27.341Z,25.00
2018-05-21T13:14:55.613Z,24.80
2018-05-21T13:17:23.181Z,24.80
2018-05-21T13:19:51.459Z,24.40
2018-05-21T13:22:19.725Z,24.30
2018-05-21T13:24:48.093Z,24.00
2018-05-21T13:27:15.612Z,23.90
2018-05-21T13:29:43.362Z,24.10
2018-05-21T13:32:10.862Z,23.70
2018-05-21T13:34:38.499Z,23.50
2018-05-21T13:37:05.999Z,24.00
2018-05-21T13:39:34.258Z,23.90
2018-05-21T13:42:01.760Z,23.90
2018-05-21T13:44:30.085Z,23.90
2018-05-21T13:46:57.590Z,23.80
2018-05-21T13:49:25.081Z,23.60
2018-05-21T13:51:53.621Z,23.80
2018-05-21T13:54:21.898Z,24.00
2018-05-21T13:56:50.163Z,23.40
2018-05-21T13:59:17.680Z,23.40
2018-05-21T14:01:45.176Z,23.60
2018-05-21T14:04:12.679Z,23.90
2018-05-21T14:06:40.176Z,23.70
2018-05-21T14:09:07.671Z,23.80
2018-05-21T14:11:35.953Z,24.00
2018-05-21T14:14:04.212Z,23.90
2018-05-21T14:16:32.488Z,23.90
2018-05-21T14:19:00.771Z,23.90
2018-05-21T14:21:29.104Z,24.00
2018-05-21T14:23:56.598Z,23.90
2018-05-21T14:26:24.855Z,23.90
2018-05-21T14:28:52.376Z,23.90
2018-05-21T14:31:19.864Z,23.80
2018-05-21T14:33:47.355Z,23.80
2018-05-21T14:36:15.622Z,24.20
2018-05-21T14:38:43.887Z,25.00
2018-05-21T14:41:11.402Z,25.00
2018-05-21T14:43:38.900Z,26.10
2018-05-21T14:46:06.397Z,26.60
2018-05-21T14:48:33.900Z,26.60
2018-05-21T14:51:01.397Z,26.80
2018-05-21T14:53:29.694Z,26.70
2018-05-21T14:55:57.180Z,26.70
2018-05-21T14:58:24.674Z,27.10
2018-05-21T15:00:52.173Z,27.30
2018-05-21T15:03:19.840Z,28.10
2018-05-21T15:05:47.357Z,29.00
2018-05-21T15:08:15.639Z,29.80
2018-05-21T15:10:43.906Z,29.20
2018-05-21T15:13:12.182Z,28.70
2018-05-21T15:15:39.677Z,28.70
2018-05-21T15:18:07.184Z,28.10
2018-05-21T15:20:36.184Z,26.90
2018-05-21T15:23:03.698Z,26.90
2018-05-21T15:25:31.223Z,26.70
2018-05-21T15:27:59.492Z,25.80
2018-05-21T15:30:27.766Z,25.70
2018-05-21T15:32:56.039Z,25.80
2018-05-21T15:35:24.285Z,25.90
2018-05-21T15:37:51.794Z,25.90
2018-05-21T15:40:19.277Z,25.60
2018-05-21T15:42:46.802Z,25.30
2018-05-21T15:45:15.075Z,25.00
2018-05-21T15:47:43.341Z,25.10
2018-05-21T15:50:11.628Z,25.00
2018-05-21T15:52:39.890Z,25.00
2018-05-21T15:55:07.406Z,25.00
2018-05-21T15:57:34.973Z,24.80
2018-05-21T16:00:03.169Z,24.70
2018-05-21T16:02:30.690Z,24.70
2018-05-21T16:04:58.182Z,24.50
2018-05-21T16:07:25.759Z,24.30
2018-05-21T16:09:53.201Z,24.10
2018-05-21T16:12:20.698Z,23.70
2018-05-21T16:14:48.222Z,23.70
2018-05-21T16:17:16.486Z,23.60
2018-05-21T16:19:43.988Z,23.60
2018-05-21T16:22:12.237Z,23.40
2018-05-21T16:24:41.271Z,23.30
2018-05-21T16:27:08.777Z,23.30
2018-05-21T16:29:36.271Z,23.40
2018-05-21T16:32:04.575Z,23.10
2018-05-21T16:34:32.071Z,23.00
2018-05-21T16:36:59.562Z,23.20
2018-05-21T16:39:27.830Z,23.10
2018-05-21T16:41:56.081Z,23.10
2018-05-21T16:44:26.636Z,23.10
2018-05-21T16:46:54.894Z,22.70
2018-05-21T16:49:22.381Z,22.70
2018-05-21T16:51:50.879Z,22.80
2018-05-21T16:54:18.404Z,22.80
2018-05-21T16:56:46.697Z,22.90
2018-05-21T16:59:14.950Z,22.80
2018-05-21T17:01:43.209Z,22.70
2018-05-21T17:04:10.903Z,22.70
2018-05-21T17:06:39.167Z,22.90
2018-05-21T17:09:07.609Z,22.70
2018-05-21T17:11:35.222Z,22.70
2018-05-21T17:14:03.481Z,22.40
2018-05-21T17:16:31.767Z,22.40
2018-05-21T17:19:00.035Z,22.20
2018-05-21T17:21:27.557Z,22.20
2018-05-21T17:23:55.056Z,22.10
2018-05-21T17:26:23.316Z,22.00
2018-05-21T17:28:52.472Z,21.90
2018-05-21T17:31:21.088Z,21.90
2018-05-21T17:33:49.418Z,21.70
2018-05-21T17:36:16.914Z,21.70
2018-05-21T17:38:44.401Z,21.70
2018-05-21T17:41:11.974Z,21.60
2018-05-21T17:43:39.436Z,21.70
2018-05-21T17:46:07.693Z,21.70
2018-05-21T17:48:35.177Z,21.70
2018-05-21T17:51:02.677Z,21.60
2018-05-21T17:53:30.156Z,21.50
2018-05-21T17:55:57.665Z,21.20
2018-05-21T17:58:25.153Z,21.00
2018-05-21T18:00:52.645Z,21.00
2018-05-21T18:03:20.158Z,20.90
2018-05-21T18:05:47.659Z,21.00
2018-05-21T18:08:15.179Z,20.90
2018-05-21T18:10:42.668Z,20.80
2018-05-21T18:13:10.144Z,20.70
2018-05-21T18:15:38.446Z,20.30
2018-05-21T18:18:05.931Z,20.20
2018-05-21T18:20:33.429Z,20.30
2018-05-21T18:23:01.681Z,20.10
2018-05-21T18:25:29.165Z,20.10
2018-05-21T18:27:57.439Z,19.90
2018-05-21T18:30:25.698Z,19.90
2018-05-21T18:32:53.232Z,19.80
2018-05-21T18:35:20.732Z,19.80
2018-05-21T18:37:48.993Z,19.50
2018-05-21T18:40:16.501Z,19.50
2018-05-21T18:42:43.997Z,19.40
2018-05-21T18:45:11.514Z,19.30
2018-05-21T18:47:39.035Z,19.20
2018-05-21T18:50:06.519Z,19.20
2018-05-21T18:52:34.816Z,18.90
2018-05-21T18:55:02.343Z,18.90
2018-05-21T18:57:30.625Z,18.60
2018-05-21T18:59:58.884Z,18.50
2018-05-21T19:02:27.144Z,18.30
2018-05-21T19:04:54.649Z,18.30
2018-05-21T19:07:22.133Z,18.30
2018-05-21T19:09:49.647Z,18.20
2018-05-21T19:12:17.951Z,18.10
2018-05-21T19:14:45.448Z,18.10
2018-05-21T19:17:12.958Z,18.00
2018-05-21T19:19:40.441Z,17.80
2018-05-21T19:22:07.951Z,17.70
2018-05-21T19:24:36.211Z,17.70
2018-05-21T19:27:03.714Z,17.60
2018-05-21T19:29:31.228Z,17.60
2018-05-21T19:31:58.715Z,17.50
2018-05-21T19:34:26.252Z,17.50
2018-05-21T19:36:54.540Z,17.40
2018-05-21T19:39:22.849Z,17.30
2018-05-21T19:41:50.353Z,17.30
2018-05-21T19:44:17.843Z,17.20
2018-05-21T19:46:46.104Z,17.10
2018-05-21T19:49:14.363Z,17.00
2018-05-21T19:51:41.876Z,17.00
2018-05-21T19:54:09.368Z,17.00
2018-05-21T19:56:36.854Z,16.90
2018-05-21T19:59:05.163Z,16.80
2018-05-21T20:01:32.666Z,16.80
2018-05-21T20:04:00.177Z,16.80
2018-05-21T20:06:27.677Z,16.70
2018-05-21T20:08:55.164Z,16.70
2018-05-21T20:11:23.434Z,16.50
2018-05-21T20:13:51.710Z,16.50
2018-05-21T20:16:19.979Z,16.50
2018-05-21T20:18:48.303Z,16.40
2018-05-21T20:21:15.804Z,16.40
2018-05-21T20:23:43.320Z,16.30
2018-05-21T20:26:10.813Z,16.30
2018-05-21T20:28:38.321Z,16.20
2018-05-21T20:31:05.832Z,16.10
2018-05-21T20:33:33.325Z,16.10
2018-05-21T20:36:01.603Z,16.00
2018-05-21T20:38:29.871Z,15.90
2018-05-21T20:40:58.145Z,15.80
2018-05-21T20:43:26.406Z,15.80
2018-05-21T20:45:53.896Z,15.80
2018-05-21T20:48:21.389Z,15.70
2018-05-21T20:50:48.878Z,15.70
2018-05-21T20:53:16.490Z,15.60
2018-05-21T20:55:44.048Z,15.60
2018-05-21T20:58:11.541Z,15.50
2018-05-21T21:00:39.042Z,15.50
2018-05-21T21:03:07.306Z,15.40
2018-05-21T21:05:35.590Z,15.30
2018-05-21T21:08:03.837Z,15.30
2018-05-21T21:10:31.386Z,15.30
2018-05-21T21:12:58.849Z,15.30
2018-05-21T21:15:26.410Z,15.20
2018-05-21T21:17:53.947Z,15.20
2018-05-21T21:20:21.435Z,15.10
2018-05-21T21:22:48.914Z,15.10
2018-05-21T21:25:17.169Z,15.00
2018-05-21T21:27:44.656Z,14.90
2018-05-21T21:30:12.178Z,15.00
2018-05-21T21:32:39.676Z,14.90
2018-05-21T21:35:07.197Z,14.80
2018-05-21T21:37:34.804Z,14.80
2018-05-21T21:40:02.310Z,14.80
2018-05-21T21:42:29.787Z,14.70
2018-05-21T21:44:57.294Z,14.60
2018-05-21T21:47:24.796Z,14.60
2018-05-21T21:49:52.309Z,14.60
2018-05-21T21:52:19.790Z,14.50
2018-05-21T21:54:47.302Z,14.50
2018-05-21T21:57:14.777Z,14.40
2018-05-21T21:59:42.286Z,14.30
2018-05-21T22:02:09.767Z,14.30
2018-05-21T22:04:38.028Z,14.20
2018-05-21T22:07:06.285Z,14.10
2018-05-21T22:09:33.768Z,14.10
2018-05-21T22:12:02.025Z,14.10
2018-05-21T22:14:29.528Z,14.10
2018-05-21T22:16:57.039Z,14.10
2018-05-21T22:19:24.526Z,14.00
2018-05-21T22:21:52.811Z,13.90
2018-05-21T22:24:20.288Z,13.90
2018-05-21T22:26:47.773Z,13.90
2018-05-21T22:29:15.301Z,13.80
2018-05-21T22:31:42.859Z,13.80
2018-05-21T22:34:10.356Z,13.80
2018-05-21T22:36:39.350Z,13.70
2018-05-21T22:39:06.863Z,13.70
2018-05-21T22:41:34.370Z,13.60
2018-05-21T22:44:01.880Z,13.50
2018-05-21T22:46:29.377Z,13.50
2018-05-21T22:48:56.894Z,13.50
2018-05-21T22:51:24.369Z,13.40
2018-05-21T22:53:51.877Z,13.40
2018-05-21T22:56:19.386Z,13.40
2018-05-21T22:58:46.864Z,13.30
2018-05-21T23:01:14.363Z,13.20
2018-05-21T23:03:42.669Z,13.10
2018-05-21T23:06:10.175Z,13.10
2018-05-21T23:08:37.667Z,13.10
2018-05-21T23:11:05.348Z,13.10
2018-05-21T23:13:32.849Z,13.10
2018-05-21T23:16:00.342Z,13.20
2018-05-21T23:18:27.833Z,13.00
2018-05-21T23:20:55.342Z,13.00
2018-05-21T23:23:23.596Z,13.00
2018-05-21T23:25:52.604Z,13.00
2018-05-21T23:28:20.082Z,13.00
2018-05-21T23:30:48.330Z,13.00
2018-05-21T23:33:15.829Z,13.00
2018-05-21T23:35:43.304Z,13.00
2018-05-21T23:38:10.814Z,12.90
2018-05-21T23:40:39.057Z,12.90
2018-05-21T23:43:06.559Z,12.80
2018-05-21T23:45:34.828Z,12.80
2018-05-21T23:48:03.090Z,12.80
2018-05-21T23:50:30.605Z,12.80
2018-05-21T23:52:58.086Z,12.70
2018-05-21T23:55:25.584Z,12.70
2018-05-21T23:57:53.856Z,12.70
